createdAt,value
2023-07-19T00:02:13.663Z,99931.17
2023-07-19T00:06:17.168Z,99926.30
2023-07-19T00:10:24.290Z,99921.60
2023-07-19T00:14:27.611Z,99921.15
2023-07-19T00:18:38.201Z,99916.55
2023-07-19T00:22:45.277Z,99913.80
2023-07-19T00:26:52.350Z,99908.48
2023-07-19T00:31:04.053Z,99913.70
2023-07-19T00:35:08.255Z,99912.92
2023-07-19T00:39:11.809Z,99908.79
2023-07-19T00:43:15.815Z,99906.73
2023-07-19T00:47:20.403Z,99903.79
2023-07-19T00:51:24.991Z,99899.89
2023-07-19T00:55:29.117Z,99901.33
2023-07-19T00:59:35.144Z,99898.34
2023-07-19T01:03:40.779Z,99891.09
2023-07-19T01:07:44.919Z,99895.67
2023-07-19T01:11:48.249Z,99894.98
2023-07-19T01:15:52.184Z,99894.42
2023-07-19T01:19:56.019Z,99892.98
2023-07-19T01:23:59.338Z,99890.00
2023-07-19T01:28:03.118Z,99889.05
2023-07-19T01:32:08.323Z,99890.47
2023-07-19T01:36:11.750Z,99893.92
2023-07-19T01:40:15.865Z,99886.38
2023-07-19T01:44:19.790Z,99880.13
2023-07-19T01:48:24.154Z,99878.27
2023-07-19T01:52:27.982Z,99877.39
2023-07-19T01:56:31.779Z,99870.86
2023-07-19T02:00:36.952Z,99869.56
2023-07-19T02:04:41.989Z,99872.77
2023-07-19T02:08:47.138Z,99874.50
2023-07-19T02:12:51.348Z,99872.77
2023-07-19T02:16:54.610Z,99873.99
2023-07-19T02:20:58.321Z,99868.67
2023-07-19T02:25:01.749Z,99868.88
2023-07-19T02:29:11.782Z,99862.43
2023-07-19T02:33:16.785Z,99863.80
2023-07-19T02:37:20.119Z,99870.72
2023-07-19T02:41:23.623Z,99875.83
2023-07-19T02:45:27.639Z,99879.52
2023-07-19T02:49:31.095Z,99874.96
2023-07-19T02:53:36.898Z,99862.14
2023-07-19T02:57:40.921Z,99859.98
2023-07-19T03:01:44.499Z,99857.89
2023-07-19T03:05:49.201Z,99857.61
2023-07-19T03:09:52.578Z,99856.72
2023-07-19T03:13:55.910Z,99859.58
2023-07-19T03:18:00.214Z,99862.08
2023-07-19T03:22:04.454Z,99857.58
2023-07-19T03:26:10.050Z,99848.90
2023-07-19T03:30:15.274Z,99848.26
2023-07-19T03:34:18.665Z,99836.73
2023-07-19T03:38:22.821Z,99841.17
2023-07-19T03:42:28.419Z,99839.77
2023-07-19T03:46:31.815Z,99837.58
2023-07-19T03:50:35.599Z,99836.05
2023-07-19T03:54:39.113Z,99841.52
2023-07-19T03:58:44.704Z,99839.98
2023-07-19T04:02:48.209Z,99841.68
2023-07-19T04:06:55.177Z,99841.06
2023-07-19T04:10:59.539Z,99843.70
2023-07-19T04:15:03.280Z,99841.72
2023-07-19T04:19:07.296Z,99843.61
2023-07-19T04:23:12.289Z,99839.23
2023-07-19T04:27:15.812Z,99834.57
2023-07-19T04:31:19.416Z,99833.95
2023-07-19T04:35:26.662Z,99833.73
2023-07-19T04:39:32.101Z,99828.00
2023-07-19T04:43:37.179Z,99822.34
2023-07-19T04:47:42.993Z,99818.52
2023-07-19T04:51:46.892Z,99817.73
2023-07-19T04:55:56.126Z,99815.77
2023-07-19T05:00:02.528Z,99819.83
2023-07-19T05:04:06.990Z,99823.15
2023-07-19T05:08:10.542Z,99832.85
2023-07-19T05:12:14.653Z,99827.27
2023-07-19T05:16:18.189Z,99819.52
2023-07-19T05:20:22.288Z,99818.33
2023-07-19T05:24:26.266Z,99820.77
2023-07-19T05:28:31.033Z,99817.17
2023-07-19T05:32:34.635Z,99814.98
2023-07-19T05:36:40.932Z,99819.20
2023-07-19T05:40:44.236Z,99816.86
2023-07-19T05:44:48.028Z,99820.91
2023-07-19T05:48:51.432Z,99814.95
2023-07-19T05:52:56.108Z,99813.10
2023-07-19T05:56:59.595Z,99812.19
2023-07-19T06:01:11.152Z,99811.02
2023-07-19T06:05:16.098Z,99812.38
2023-07-19T06:09:21.507Z,99813.86
2023-07-19T06:13:25.440Z,99819.60
2023-07-19T06:17:28.979Z,99817.71
2023-07-19T06:21:33.260Z,99813.16
2023-07-19T06:25:36.564Z,99810.82
2023-07-19T06:29:40.506Z,99805.82
2023-07-19T06:33:44.329Z,99808.11
2023-07-19T06:37:48.610Z,99804.61
2023-07-19T06:41:51.974Z,99803.02
2023-07-19T06:45:56.113Z,99805.11
2023-07-19T06:50:00.659Z,99799.70
2023-07-19T06:54:14.432Z,99797.05
2023-07-19T06:58:19.623Z,99788.92
2023-07-19T07:55:33.480Z,99751.05
2023-07-19T07:59:51.566Z,99750.55
2023-07-19T08:04:01.778Z,99742.59
2023-07-19T08:08:18.320Z,99739.28
2023-07-19T08:12:22.319Z,99738.42
2023-07-19T08:16:25.905Z,99736.09
2023-07-19T08:20:30.947Z,99730.42
2023-07-19T08:24:35.083Z,99729.55
2023-07-19T08:28:42.651Z,99720.19
2023-07-19T08:32:50.852Z,99717.23
2023-07-19T08:36:55.959Z,99712.70
2023-07-19T08:41:08.271Z,99709.91
2023-07-19T08:45:14.864Z,99708.27
2023-07-19T08:49:20.861Z,99710.92
2023-07-19T08:53:32.267Z,99708.05
2023-07-19T08:57:48.545Z,99704.38
2023-07-19T09:02:03.631Z,99698.25
2023-07-19T09:06:13.425Z,99691.36
2023-07-19T09:10:22.600Z,99685.36
2023-07-19T09:14:38.366Z,99675.92
2023-07-19T09:18:53.780Z,99670.80
2023-07-19T09:23:05.074Z,99659.92
2023-07-19T09:27:12.808Z,99652.63
2023-07-19T09:31:29.606Z,99652.55
2023-07-19T09:35:33.606Z,99654.95
2023-07-19T09:39:47.970Z,99652.12
2023-07-19T09:43:57.204Z,99648.04
2023-07-19T09:48:04.329Z,99639.25
2023-07-19T09:52:18.572Z,99633.16
2023-07-19T09:56:22.668Z,99621.46
2023-07-19T10:00:27.475Z,99615.47
2023-07-19T10:04:39.949Z,99618.30
2023-07-19T10:08:43.357Z,99613.13
2023-07-19T10:12:51.700Z,99611.60
2023-07-19T10:17:05.976Z,99610.09
2023-07-19T10:21:11.677Z,99605.84
2023-07-19T10:25:21.423Z,99601.02
2023-07-19T10:29:28.529Z,99592.67
2023-07-19T10:33:37.972Z,99588.30
2023-07-19T10:37:54.065Z,99581.44
2023-07-19T10:41:58.437Z,99574.87
2023-07-19T10:46:05.002Z,99568.12
2023-07-19T10:50:12.756Z,99570.87
2023-07-19T10:54:21.712Z,99560.09
2023-07-19T10:58:27.956Z,99554.69
2023-07-19T11:02:33.044Z,99555.28
2023-07-19T11:06:56.007Z,99550.96
2023-07-19T11:11:01.265Z,99545.48
2023-07-19T11:15:09.968Z,99546.73
2023-07-19T11:19:13.779Z,99538.14
2023-07-19T11:23:23.052Z,99533.30
2023-07-19T11:27:38.397Z,99539.45
2023-07-19T11:31:42.059Z,99539.71
2023-07-19T11:35:46.376Z,99534.27
2023-07-19T11:39:53.784Z,99525.69
2023-07-19T11:56:24.621Z,99500.89
2023-07-19T12:00:29.117Z,99502.53
2023-07-19T12:04:32.405Z,99498.60
2023-07-19T12:08:35.178Z,99499.59
2023-07-19T12:12:37.392Z,99495.54
2023-07-19T12:16:39.491Z,99484.29
2023-07-19T12:20:41.573Z,99479.98
2023-07-19T12:24:43.985Z,99471.64
2023-07-19T12:28:47.764Z,99466.80
2023-07-19T12:32:49.939Z,99461.63
2023-07-19T12:36:52.875Z,99461.48
2023-07-19T12:40:54.965Z,99449.16
2023-07-19T12:44:57.164Z,99446.55
2023-07-19T12:48:59.730Z,99446.50
2023-07-19T12:53:01.880Z,99439.94
2023-07-19T12:57:07.304Z,99433.62
2023-07-19T13:01:09.444Z,99427.48
2023-07-19T13:05:12.273Z,99422.04
2023-07-19T13:09:15.721Z,99419.39
2023-07-19T13:13:17.876Z,99411.65
2023-07-19T13:17:22.324Z,99408.19
2023-07-19T13:21:26.280Z,99401.63
2023-07-19T13:25:29.002Z,99398.17
2023-07-19T13:29:31.572Z,99393.45
2023-07-19T13:33:33.660Z,99387.19
2023-07-19T13:41:40.668Z,99379.25
2023-07-19T13:45:42.874Z,99374.44
2023-07-19T13:49:45.296Z,99372.08
2023-07-19T13:53:47.392Z,99367.61
2023-07-19T13:57:49.470Z,99365.70
2023-07-19T14:01:51.742Z,99358.60
2023-07-19T14:05:53.781Z,99354.20
2023-07-19T14:09:56.605Z,99354.95
2023-07-19T14:13:58.843Z,99353.05
2023-07-19T14:18:02.043Z,99346.69
2023-07-19T14:22:07.816Z,99339.14
2023-07-19T14:26:11.042Z,99333.70
2023-07-19T14:30:20.460Z,99328.63
2023-07-19T14:34:26.240Z,99325.08
2023-07-19T14:38:31.411Z,99319.06
2023-07-19T14:42:35.473Z,99311.98
2023-07-19T14:46:39.728Z,99307.88
2023-07-19T14:50:55.636Z,99302.98
2023-07-19T14:59:08.094Z,99296.48
2023-07-19T15:07:28.967Z,99293.88
2023-07-19T15:11:31.631Z,99288.11
2023-07-19T15:15:33.742Z,99285.81
2023-07-19T15:19:36.052Z,99274.81
2023-07-19T15:23:38.943Z,99278.60
2023-07-19T15:27:52.118Z,99286.58
2023-07-19T15:31:55.579Z,99281.84
2023-07-19T15:35:59.796Z,99275.98
2023-07-19T15:40:05.510Z,99271.93
2023-07-19T15:44:25.629Z,99277.06
2023-07-19T15:48:31.800Z,99275.67
2023-07-19T15:52:34.037Z,99272.52
2023-07-19T15:56:36.416Z,99273.11
2023-07-19T16:00:38.548Z,99275.19
2023-07-19T16:04:41.988Z,99273.06
2023-07-19T16:08:45.033Z,99271.83
2023-07-19T16:12:51.256Z,99267.20
2023-07-19T16:16:54.049Z,99268.05
2023-07-19T16:20:56.474Z,99266.27
2023-07-19T16:25:00.047Z,99269.77
2023-07-19T16:29:02.957Z,99275.71
2023-07-19T16:33:05.134Z,99272.27
2023-07-19T16:37:07.468Z,99273.88
2023-07-19T16:41:10.389Z,99271.64
2023-07-19T16:45:12.937Z,99279.05
2023-07-19T16:49:15.134Z,99277.61
2023-07-19T16:53:20.058Z,99285.74
2023-07-19T16:57:22.042Z,99291.29
2023-07-19T17:01:27.772Z,99290.86
2023-07-19T17:05:34.395Z,99291.44
2023-07-19T17:09:44.894Z,99294.21
2023-07-19T17:13:47.008Z,99294.46
2023-07-19T17:17:49.542Z,99288.41
2023-07-19T17:21:51.922Z,99286.67
2023-07-19T17:25:53.952Z,99291.39
2023-07-19T17:29:57.063Z,99294.10
2023-07-19T17:33:59.844Z,99290.25
2023-07-19T17:38:09.441Z,99290.30
2023-07-19T17:42:13.879Z,99289.65
2023-07-19T17:46:20.816Z,99290.36
2023-07-19T17:50:23.350Z,99282.32
2023-07-19T17:54:25.394Z,99280.02
2023-07-19T17:58:28.046Z,99287.02
2023-07-19T18:02:31.799Z,99286.48
2023-07-19T18:06:34.672Z,99283.53
2023-07-19T18:10:40.924Z,99288.94
2023-07-19T18:14:44.214Z,99284.26
2023-07-19T18:18:46.342Z,99284.83
2023-07-19T18:22:48.616Z,99278.83
2023-07-19T18:26:51.913Z,99277.35
2023-07-19T18:30:56.091Z,99276.81
2023-07-19T18:34:58.217Z,99282.67
2023-07-19T18:39:03.539Z,99286.86
2023-07-19T18:43:07.321Z,99285.80
2023-07-19T18:47:09.526Z,99291.63
2023-07-19T18:51:12.284Z,99295.86
2023-07-19T18:55:14.512Z,99301.11
2023-07-19T18:59:16.696Z,99302.48
2023-07-19T19:03:19.025Z,99304.58
2023-07-19T19:07:21.324Z,99305.14
2023-07-19T19:11:23.626Z,99305.64
2023-07-19T19:15:26.306Z,99306.71
2023-07-19T19:19:28.372Z,99312.73
2023-07-19T19:23:30.496Z,99310.66
2023-07-19T19:27:32.799Z,99310.67
2023-07-19T19:31:37.760Z,99310.20
2023-07-19T19:35:41.428Z,99311.95
2023-07-19T19:39:43.451Z,99314.55
2023-07-19T19:43:45.354Z,99313.20
2023-07-19T19:47:47.520Z,99311.94
2023-07-19T19:51:52.128Z,99307.59
2023-07-19T19:56:17.664Z,99303.34
2023-07-19T20:00:24.138Z,99301.14
2023-07-19T20:04:27.385Z,99309.60
2023-07-19T20:08:30.757Z,99307.33
2023-07-19T20:12:35.593Z,99307.54
2023-07-19T20:16:52.782Z,99308.33
2023-07-19T20:20:57.128Z,99309.61
2023-07-19T20:25:08.912Z,99308.32
2023-07-19T20:33:30.811Z,99309.50
2023-07-19T20:37:36.094Z,99315.42
2023-07-19T20:41:39.736Z,99317.79
2023-07-19T20:45:42.367Z,99319.28
2023-07-19T20:50:07.103Z,99305.79
2023-07-19T20:54:11.289Z,99306.63
2023-07-19T20:58:14.138Z,99313.29
2023-07-19T21:02:16.866Z,99312.27
2023-07-19T21:06:21.865Z,99313.75
2023-07-19T21:10:27.538Z,99314.08
2023-07-19T21:14:29.746Z,99302.76
2023-07-19T21:18:32.200Z,99304.52
2023-07-19T21:22:34.798Z,99301.73
2023-07-19T21:26:37.603Z,99305.77
2023-07-19T21:30:40.067Z,99306.84
2023-07-19T21:34:43.678Z,99309.71
2023-07-19T21:38:46.235Z,99322.46
2023-07-19T21:42:50.553Z,99318.02
2023-07-19T21:46:52.869Z,99321.47
2023-07-19T21:50:55.109Z,99325.39
2023-07-19T21:54:57.088Z,99335.35
2023-07-19T21:58:59.420Z,99341.36
2023-07-19T22:03:01.514Z,99340.80
2023-07-19T22:07:03.855Z,99336.23
2023-07-19T22:11:09.033Z,99332.13
2023-07-19T22:15:11.150Z,99334.48
2023-07-19T22:19:13.843Z,99334.74
2023-07-19T22:23:20.167Z,99334.10
2023-07-19T22:27:22.872Z,99330.38
2023-07-19T22:31:27.648Z,99325.16
2023-07-19T22:35:29.769Z,99325.31
2023-07-19T22:39:31.846Z,99319.98
2023-07-19T22:43:34.166Z,99320.95
2023-07-19T22:47:36.179Z,99324.45
2023-07-19T22:51:39.171Z,99321.09
2023-07-19T22:55:41.146Z,99314.45
2023-07-19T22:59:45.897Z,99304.09
2023-07-19T23:03:49.099Z,99307.08
2023-07-19T23:07:51.277Z,99301.31
2023-07-19T23:11:53.454Z,99301.86
2023-07-19T23:15:55.780Z,99295.58
2023-07-19T23:19:57.788Z,99302.44
2023-07-19T23:23:59.756Z,99302.83
2023-07-19T23:28:02.215Z,99304.77
2023-07-19T23:32:05.630Z,99307.95
2023-07-19T23:36:09.601Z,99303.71
2023-07-19T23:40:14.867Z,99294.57
2023-07-19T23:44:17.322Z,99286.04
2023-07-19T23:48:19.580Z,99285.56
2023-07-19T23:52:21.686Z,99289.74
2023-07-19T23:56:24.886Z,99298.71
